sensor_id;sensor_type;location;lat;lon;timestamp;pressure;altitude;pressure_sealevel;temperature;humidity
41078;BME280;26823;42.662;23.352;2022-07-17T00:01:05;95170.50;;;22.87;53.48
41078;BME280;26823;42.662;23.352;2022-07-17T00:03:31;95168.88;;;22.86;53.47
41078;BME280;26823;42.662;23.352;2022-07-17T00:05:56;95160.31;;;22.75;53.85
41078;BME280;26823;42.662;23.352;2022-07-17T00:08:21;95157.44;;;22.72;53.93
41078;BME280;26823;42.662;23.352;2022-07-17T00:10:47;95173.41;;;22.66;53.85
41078;BME280;26823;42.662;23.352;2022-07-17T00:13:12;95176.06;;;22.62;54.41
41078;BME280;26823;42.662;23.352;2022-07-17T00:15:38;95170.44;;;22.59;54.49
41078;BME280;26823;42.662;23.352;2022-07-17T00:18:04;95166.63;;;22.63;54.17
41078;BME280;26823;42.662;23.352;2022-07-17T00:20:31;95177.66;;;22.63;54.04
41078;BME280;26823;42.662;23.352;2022-07-17T00:22:57;95166.69;;;22.51;54.55
41078;BME280;26823;42.662;23.352;2022-07-17T00:25:23;95185.84;;;22.60;54.46
41078;BME280;26823;42.662;23.352;2022-07-17T00:27:49;95185.16;;;22.51;54.72
41078;BME280;26823;42.662;23.352;2022-07-17T00:30:14;95190.09;;;22.45;54.68
41078;BME280;26823;42.662;23.352;2022-07-17T00:32:41;95182.19;;;22.43;54.63
41078;BME280;26823;42.662;23.352;2022-07-17T00:35:07;95185.84;;;22.47;55.02
41078;BME280;26823;42.662;23.352;2022-07-17T00:37:44;95186.63;;;22.36;55.20
41078;BME280;26823;42.662;23.352;2022-07-17T00:40:13;95184.22;;;22.34;55.25
41078;BME280;26823;42.662;23.352;2022-07-17T00:42:40;95176.19;;;22.29;55.52
41078;BME280;26823;42.662;23.352;2022-07-17T00:45:07;95178.94;;;22.29;55.49
41078;BME280;26823;42.662;23.352;2022-07-17T00:47:33;95190.19;;;22.24;55.56
41078;BME280;26823;42.662;23.352;2022-07-17T00:49:58;95186.19;;;22.21;55.40
41078;BME280;26823;42.662;23.352;2022-07-17T00:52:24;95182.63;;;22.21;55.78
41078;BME280;26823;42.662;23.352;2022-07-17T00:54:50;95188.13;;;22.21;55.56
41078;BME280;26823;42.662;23.352;2022-07-17T00:57:17;95193.53;;;22.17;55.62
41078;BME280;26823;42.662;23.352;2022-07-17T00:59:44;95189.16;;;22.16;55.79
41078;BME280;26823;42.662;23.352;2022-07-17T01:02:11;95192.50;;;22.09;55.56
41078;BME280;26823;42.662;23.352;2022-07-17T01:04:40;95199.59;;;22.10;56.17
41078;BME280;26823;42.662;23.352;2022-07-17T01:07:06;95189.97;;;22.04;55.81
41078;BME280;26823;42.662;23.352;2022-07-17T01:09:33;95196.63;;;22.03;56.54
41078;BME280;26823;42.662;23.352;2022-07-17T01:11:59;95195.00;;;22.02;55.56
41078;BME280;26823;42.662;23.352;2022-07-17T01:14:26;95196.97;;;22.02;55.77
41078;BME280;26823;42.662;23.352;2022-07-17T01:16:52;95199.47;;;21.94;55.55
41078;BME280;26823;42.662;23.352;2022-07-17T01:19:18;95185.00;;;21.85;55.79
41078;BME280;26823;42.662;23.352;2022-07-17T01:21:45;95206.59;;;21.95;55.96
41078;BME280;26823;42.662;23.352;2022-07-17T01:24:11;95191.44;;;21.89;55.69
41078;BME280;26823;42.662;23.352;2022-07-17T01:26:40;95197.28;;;21.88;55.82
41078;BME280;26823;42.662;23.352;2022-07-17T01:29:06;95192.31;;;21.81;55.73
41078;BME280;26823;42.662;23.352;2022-07-17T01:31:31;95186.91;;;21.72;55.58
41078;BME280;26823;42.662;23.352;2022-07-17T01:33:58;95198.41;;;21.74;55.91
41078;BME280;26823;42.662;23.352;2022-07-17T01:36:25;95202.63;;;21.72;55.99
41078;BME280;26823;42.662;23.352;2022-07-17T01:38:51;95189.97;;;21.58;57.00
41078;BME280;26823;42.662;23.352;2022-07-17T01:41:17;95188.28;;;21.66;56.39
41078;BME280;26823;42.662;23.352;2022-07-17T01:43:42;95180.25;;;21.61;56.07
41078;BME280;26823;42.662;23.352;2022-07-17T01:46:08;95201.94;;;21.75;56.51
41078;BME280;26823;42.662;23.352;2022-07-17T01:48:34;95205.41;;;21.72;56.23
41078;BME280;26823;42.662;23.352;2022-07-17T01:50:59;95197.00;;;21.68;55.71
41078;BME280;26823;42.662;23.352;2022-07-17T01:53:24;95185.09;;;21.64;55.88
41078;BME280;26823;42.662;23.352;2022-07-17T01:55:50;95195.88;;;21.69;56.12
41078;BME280;26823;42.662;23.352;2022-07-17T01:58:15;95200.56;;;21.69;56.54
41078;BME280;26823;42.662;23.352;2022-07-17T02:00:41;95203.00;;;21.70;56.95
41078;BME280;26823;42.662;23.352;2022-07-17T02:03:06;95194.00;;;21.61;57.41
41078;BME280;26823;42.662;23.352;2022-07-17T02:05:32;95203.09;;;21.61;57.91
41078;BME280;26823;42.662;23.352;2022-07-17T02:07:57;95206.25;;;21.51;58.38
41078;BME280;26823;42.662;23.352;2022-07-17T02:10:23;95203.22;;;21.44;58.61
41078;BME280;26823;42.662;23.352;2022-07-17T02:12:48;95198.50;;;21.32;59.07
41078;BME280;26823;42.662;23.352;2022-07-17T02:15:14;95207.28;;;21.25;59.29
41078;BME280;26823;42.662;23.352;2022-07-17T02:17:40;95196.34;;;21.16;59.61
41078;BME280;26823;42.662;23.352;2022-07-17T02:20:06;95211.56;;;21.14;59.73
41078;BME280;26823;42.662;23.352;2022-07-17T02:22:33;95199.66;;;21.10;59.86
41078;BME280;26823;42.662;23.352;2022-07-17T02:24:58;95201.47;;;21.06;60.08
41078;BME280;26823;42.662;23.352;2022-07-17T02:27:24;95200.78;;;21.09;60.26
41078;BME280;26823;42.662;23.352;2022-07-17T02:29:49;95192.47;;;20.96;60.39
41078;BME280;26823;42.662;23.352;2022-07-17T02:32:14;95202.81;;;20.99;60.42
41078;BME280;26823;42.662;23.352;2022-07-17T02:34:40;95199.53;;;20.85;60.68
41078;BME280;26823;42.662;23.352;2022-07-17T02:37:06;95195.03;;;20.80;60.60
41078;BME280;26823;42.662;23.352;2022-07-17T02:39:31;95201.66;;;20.79;60.48
41078;BME280;26823;42.662;23.352;2022-07-17T02:41:57;95205.41;;;20.75;60.31
41078;BME280;26823;42.662;23.352;2022-07-17T02:44:22;95203.63;;;20.79;60.61
41078;BME280;26823;42.662;23.352;2022-07-17T02:46:48;95206.72;;;20.68;60.51
41078;BME280;26823;42.662;23.352;2022-07-17T02:49:13;95208.53;;;20.64;60.73
41078;BME280;26823;42.662;23.352;2022-07-17T02:51:39;95197.63;;;20.47;61.09
41078;BME280;26823;42.662;23.352;2022-07-17T02:54:04;95218.63;;;20.51;61.31
41078;BME280;26823;42.662;23.352;2022-07-17T02:56:30;95217.25;;;20.36;61.86
41078;BME280;26823;42.662;23.352;2022-07-17T02:58:55;95222.00;;;20.27;61.95
41078;BME280;26823;42.662;23.352;2022-07-17T03:01:20;95213.75;;;20.27;61.86
41078;BME280;26823;42.662;23.352;2022-07-17T03:03:46;95213.75;;;20.27;61.63
41078;BME280;26823;42.662;23.352;2022-07-17T03:06:11;95221.50;;;20.25;61.64
41078;BME280;26823;42.662;23.352;2022-07-17T03:08:37;95235.53;;;20.32;61.63
41078;BME280;26823;42.662;23.352;2022-07-17T03:11:02;95243.28;;;20.30;61.65
41078;BME280;26823;42.662;23.352;2022-07-17T03:13:28;95237.38;;;20.19;61.93
41078;BME280;26823;42.662;23.352;2022-07-17T03:15:53;95242.38;;;20.17;62.16
41078;BME280;26823;42.662;23.352;2022-07-17T03:18:19;95236.13;;;20.08;62.07
41078;BME280;26823;42.662;23.352;2022-07-17T03:20:44;95248.56;;;20.14;61.94
41078;BME280;26823;42.662;23.352;2022-07-17T03:23:10;95245.78;;;20.23;61.86
41078;BME280;26823;42.662;23.352;2022-07-17T03:25:36;95249.00;;;20.55;60.47
41078;BME280;26823;42.662;23.352;2022-07-17T03:28:01;95242.75;;;20.76;60.23
41078;BME280;26823;42.662;23.352;2022-07-17T03:30:27;95222.72;;;20.75;59.67
41078;BME280;26823;42.662;23.352;2022-07-17T03:32:52;95255.84;;;21.21;58.44
41078;BME280;26823;42.662;23.352;2022-07-17T03:35:18;95242.88;;;21.43;57.36
41078;BME280;26823;42.662;23.352;2022-07-17T03:37:43;95262.72;;;22.15;55.59
41078;BME280;26823;42.662;23.352;2022-07-17T03:40:10;95251.06;;;22.80;53.01
41078;BME280;26823;42.662;23.352;2022-07-17T03:42:36;95255.44;;;22.69;52.69
41078;BME280;26823;42.662;23.352;2022-07-17T03:45:01;95258.34;;;22.27;54.15
41078;BME280;26823;42.662;23.352;2022-07-17T03:47:27;95268.44;;;21.98;55.00
41078;BME280;26823;42.662;23.352;2022-07-17T03:49:52;95266.03;;;21.63;56.08
41078;BME280;26823;42.662;23.352;2022-07-17T03:52:18;95273.06;;;21.51;56.88
41078;BME280;26823;42.662;23.352;2022-07-17T03:54:43;95268.63;;;21.38;56.79
41078;BME280;26823;42.662;23.352;2022-07-17T03:57:08;95274.25;;;21.29;57.12
41078;BME280;26823;42.662;23.352;2022-07-17T03:59:34;95285.81;;;21.14;59.37
41078;BME280;26823;42.662;23.352;2022-07-17T04:01:59;95292.94;;;21.15;58.46
41078;BME280;26823;42.662;23.352;2022-07-17T04:04:25;95293.88;;;21.19;58.08
41078;BME280;26823;42.662;23.352;2022-07-17T04:06:50;95286.09;;;21.21;57.61
41078;BME280;26823;42.662;23.352;2022-07-17T04:09:15;95286.78;;;21.18;57.85
41078;BME280;26823;42.662;23.352;2022-07-17T04:11:41;95286.59;;;21.23;57.59
41078;BME280;26823;42.662;23.352;2022-07-17T04:14:06;95298.00;;;21.13;57.81
41078;BME280;26823;42.662;23.352;2022-07-17T04:16:32;95285.44;;;21.03;59.19
41078;BME280;26823;42.662;23.352;2022-07-17T04:18:57;95307.97;;;21.17;58.65
41078;BME280;26823;42.662;23.352;2022-07-17T04:21:22;95298.84;;;21.05;59.44
41078;BME280;26823;42.662;23.352;2022-07-17T04:23:48;95301.38;;;21.10;59.01
41078;BME280;26823;42.662;23.352;2022-07-17T04:26:13;95309.34;;;21.02;59.51
41078;BME280;26823;42.662;23.352;2022-07-17T04:28:39;95315.44;;;21.17;59.55
41078;BME280;26823;42.662;23.352;2022-07-17T04:31:04;95310.31;;;21.28;58.83
41078;BME280;26823;42.662;23.352;2022-07-17T04:33:30;95311.59;;;21.30;59.13
41078;BME280;26823;42.662;23.352;2022-07-17T04:35:55;95316.22;;;21.39;58.91
41078;BME280;26823;42.662;23.352;2022-07-17T04:38:21;95312.00;;;21.41;59.02
41078;BME280;26823;42.662;23.352;2022-07-17T04:40:46;95308.09;;;21.63;57.80
41078;BME280;26823;42.662;23.352;2022-07-17T04:43:12;95317.34;;;21.80;57.00
41078;BME280;26823;42.662;23.352;2022-07-17T04:45:37;95318.72;;;22.07;56.54
41078;BME280;26823;42.662;23.352;2022-07-17T04:48:03;95315.38;;;22.72;54.89
41078;BME280;26823;42.662;23.352;2022-07-17T04:50:28;95319.50;;;22.91;53.94
41078;BME280;26823;42.662;23.352;2022-07-17T04:52:54;95317.47;;;22.88;53.85
41078;BME280;26823;42.662;23.352;2022-07-17T04:55:19;95323.41;;;22.77;54.43
41078;BME280;26823;42.662;23.352;2022-07-17T04:57:45;95321.47;;;22.78;53.90
41078;BME280;26823;42.662;23.352;2022-07-17T05:00:11;95337.53;;;22.76;53.70
41078;BME280;26823;42.662;23.352;2022-07-17T05:02:37;95342.81;;;22.81;53.22
41078;BME280;26823;42.662;23.352;2022-07-17T05:05:03;95341.44;;;22.75;53.96
41078;BME280;26823;42.662;23.352;2022-07-17T05:07:29;95351.44;;;22.67;52.78
41078;BME280;26823;42.662;23.352;2022-07-17T05:09:57;95349.63;;;22.71;51.29
41078;BME280;26823;42.662;23.352;2022-07-17T05:12:22;95350.06;;;22.61;50.99
41078;BME280;26823;42.662;23.352;2022-07-17T05:14:48;95359.16;;;22.74;48.92
41078;BME280;26823;42.662;23.352;2022-07-17T05:17:13;95348.69;;;22.79;48.31
41078;BME280;26823;42.662;23.352;2022-07-17T05:19:39;95345.47;;;22.77;48.68
41078;BME280;26823;42.662;23.352;2022-07-17T05:22:05;95337.56;;;22.88;49.01
41078;BME280;26823;42.662;23.352;2022-07-17T05:24:30;95353.88;;;22.93;46.80
41078;BME280;26823;42.662;23.352;2022-07-17T05:26:56;95344.44;;;22.94;48.82
41078;BME280;26823;42.662;23.352;2022-07-17T05:29:21;95351.91;;;23.06;48.03
41078;BME280;26823;42.662;23.352;2022-07-17T05:31:47;95346.03;;;23.08;47.96
41078;BME280;26823;42.662;23.352;2022-07-17T05:34:12;95339.03;;;22.86;46.39
41078;BME280;26823;42.662;23.352;2022-07-17T05:36:37;95348.78;;;23.08;47.61
41078;BME280;26823;42.662;23.352;2022-07-17T05:39:03;95350.16;;;23.14;49.37
41078;BME280;26823;42.662;23.352;2022-07-17T05:41:28;95339.16;;;23.26;48.75
41078;BME280;26823;42.662;23.352;2022-07-17T05:43:54;95341.22;;;23.29;46.34
41078;BME280;26823;42.662;23.352;2022-07-17T05:46:19;95346.69;;;23.42;46.06
41078;BME280;26823;42.662;23.352;2022-07-17T05:48:45;95334.06;;;23.41;45.21
41078;BME280;26823;42.662;23.352;2022-07-17T05:51:10;95315.47;;;23.25;45.24
41078;BME280;26823;42.662;23.352;2022-07-17T05:53:35;95344.88;;;23.46;45.61
41078;BME280;26823;42.662;23.352;2022-07-17T05:56:01;95342.06;;;23.58;45.41
41078;BME280;26823;42.662;23.352;2022-07-17T05:58:26;95339.06;;;23.64;43.59
41078;BME280;26823;42.662;23.352;2022-07-17T06:00:54;95348.91;;;23.77;42.48
41078;BME280;26823;42.662;23.352;2022-07-17T06:03:20;95347.56;;;23.71;41.59
41078;BME280;26823;42.662;23.352;2022-07-17T06:05:45;95349.28;;;23.75;41.63
41078;BME280;26823;42.662;23.352;2022-07-17T06:08:11;95351.31;;;23.78;41.87
41078;BME280;26823;42.662;23.352;2022-07-17T06:10:36;95367.84;;;24.03;40.72
41078;BME280;26823;42.662;23.352;2022-07-17T06:13:04;95365.19;;;24.07;40.21
41078;BME280;26823;42.662;23.352;2022-07-17T06:15:29;95365.22;;;23.94;39.99
41078;BME280;26823;42.662;23.352;2022-07-17T06:17:54;95355.34;;;23.81;40.61
41078;BME280;26823;42.662;23.352;2022-07-17T06:20:20;95353.06;;;23.71;41.49
41078;BME280;26823;42.662;23.352;2022-07-17T06:22:45;95376.78;;;23.72;42.16
41078;BME280;26823;42.662;23.352;2022-07-17T06:25:12;95360.50;;;23.83;42.48
41078;BME280;26823;42.662;23.352;2022-07-17T06:27:41;95341.88;;;23.92;41.01
41078;BME280;26823;42.662;23.352;2022-07-17T06:30:12;95374.09;;;24.16;39.38
41078;BME280;26823;42.662;23.352;2022-07-17T06:32:38;95378.59;;;24.21;39.41
41078;BME280;26823;42.662;23.352;2022-07-17T06:35:04;95363.59;;;24.22;39.29
41078;BME280;26823;42.662;23.352;2022-07-17T06:37:30;95377.31;;;24.18;40.72
41078;BME280;26823;42.662;23.352;2022-07-17T06:39:55;95361.31;;;23.96;41.46
41078;BME280;26823;42.662;23.352;2022-07-17T06:42:22;95375.88;;;24.08;42.84
41078;BME280;26823;42.662;23.352;2022-07-17T06:44:48;95371.38;;;24.32;41.61
41078;BME280;26823;42.662;23.352;2022-07-17T06:47:13;95349.91;;;23.97;39.15
41078;BME280;26823;42.662;23.352;2022-07-17T06:49:39;95367.47;;;24.05;38.82
41078;BME280;26823;42.662;23.352;2022-07-17T06:52:04;95365.34;;;24.14;38.80
41078;BME280;26823;42.662;23.352;2022-07-17T06:54:30;95356.47;;;24.21;39.45
41078;BME280;26823;42.662;23.352;2022-07-17T06:56:56;95358.53;;;24.24;40.19
41078;BME280;26823;42.662;23.352;2022-07-17T06:59:21;95370.97;;;24.46;40.84
41078;BME280;26823;42.662;23.352;2022-07-17T07:01:47;95370.16;;;24.62;39.97
41078;BME280;26823;42.662;23.352;2022-07-17T07:04:13;95368.19;;;24.62;38.93
41078;BME280;26823;42.662;23.352;2022-07-17T07:06:38;95361.63;;;24.67;40.70
41078;BME280;26823;42.662;23.352;2022-07-17T07:09:04;95379.41;;;24.82;40.03
41078;BME280;26823;42.662;23.352;2022-07-17T07:11:29;95367.78;;;24.76;40.71
41078;BME280;26823;42.662;23.352;2022-07-17T07:13:55;95369.94;;;24.67;41.21
41078;BME280;26823;42.662;23.352;2022-07-17T07:16:20;95374.31;;;24.68;41.51
41078;BME280;26823;42.662;23.352;2022-07-17T07:18:46;95389.47;;;24.74;39.34
41078;BME280;26823;42.662;23.352;2022-07-17T07:21:12;95369.56;;;24.68;39.18
41078;BME280;26823;42.662;23.352;2022-07-17T07:23:37;95376.72;;;24.85;39.42
41078;BME280;26823;42.662;23.352;2022-07-17T07:26:03;95380.81;;;24.91;40.06
41078;BME280;26823;42.662;23.352;2022-07-17T07:28:28;95387.34;;;24.99;38.57
41078;BME280;26823;42.662;23.352;2022-07-17T07:30:53;95381.44;;;25.01;38.98
41078;BME280;26823;42.662;23.352;2022-07-17T07:33:19;95379.66;;;25.08;39.62
41078;BME280;26823;42.662;23.352;2022-07-17T07:35:44;95357.78;;;25.03;39.53
41078;BME280;26823;42.662;23.352;2022-07-17T07:38:10;95385.97;;;25.09;38.88
41078;BME280;26823;42.662;23.352;2022-07-17T07:40:35;95374.63;;;25.14;39.27
41078;BME280;26823;42.662;23.352;2022-07-17T07:43:01;95391.69;;;25.32;37.36
41078;BME280;26823;42.662;23.352;2022-07-17T07:45:27;95388.66;;;25.37;36.91
41078;BME280;26823;42.662;23.352;2022-07-17T07:47:54;95385.31;;;25.48;37.69
41078;BME280;26823;42.662;23.352;2022-07-17T07:50:22;95392.31;;;25.61;38.61
41078;BME280;26823;42.662;23.352;2022-07-17T07:52:49;95392.19;;;25.54;40.09
41078;BME280;26823;42.662;23.352;2022-07-17T07:55:14;95380.00;;;25.59;38.43
41078;BME280;26823;42.662;23.352;2022-07-17T07:57:40;95381.53;;;25.56;39.16
41078;BME280;26823;42.662;23.352;2022-07-17T08:00:07;95392.56;;;25.72;38.28
41078;BME280;26823;42.662;23.352;2022-07-17T08:02:34;95382.16;;;25.65;39.40
41078;BME280;26823;42.662;23.352;2022-07-17T08:04:59;95378.72;;;25.92;38.31
41078;BME280;26823;42.662;23.352;2022-07-17T08:07:26;95392.44;;;26.04;38.30
41078;BME280;26823;42.662;23.352;2022-07-17T08:09:52;95395.78;;;26.10;38.47
41078;BME280;26823;42.662;23.352;2022-07-17T08:12:18;95393.50;;;26.15;36.15
41078;BME280;26823;42.662;23.352;2022-07-17T08:14:43;95394.16;;;26.09;36.41
41078;BME280;26823;42.662;23.352;2022-07-17T08:17:08;95382.03;;;26.17;36.17
41078;BME280;26823;42.662;23.352;2022-07-17T08:19:34;95390.75;;;26.38;36.41
41078;BME280;26823;42.662;23.352;2022-07-17T08:22:00;95392.59;;;26.50;35.68
41078;BME280;26823;42.662;23.352;2022-07-17T08:24:25;95396.38;;;26.62;37.20
41078;BME280;26823;42.662;23.352;2022-07-17T08:26:50;95368.31;;;26.44;35.59
41078;BME280;26823;42.662;23.352;2022-07-17T08:29:16;95395.28;;;26.47;34.78
41078;BME280;26823;42.662;23.352;2022-07-17T08:31:41;95378.75;;;26.31;35.69
41078;BME280;26823;42.662;23.352;2022-07-17T08:34:07;95381.81;;;26.45;33.86
41078;BME280;26823;42.662;23.352;2022-07-17T08:36:33;95382.91;;;26.64;34.59
41078;BME280;26823;42.662;23.352;2022-07-17T08:38:58;95375.03;;;26.66;33.90
41078;BME280;26823;42.662;23.352;2022-07-17T08:41:24;95384.97;;;26.90;34.92
41078;BME280;26823;42.662;23.352;2022-07-17T08:43:49;95383.06;;;26.94;35.21
41078;BME280;26823;42.662;23.352;2022-07-17T08:46:16;95392.06;;;27.11;34.71
41078;BME280;26823;42.662;23.352;2022-07-17T08:48:45;95393.66;;;27.35;34.21
41078;BME280;26823;42.662;23.352;2022-07-17T08:51:11;95387.00;;;27.16;35.29
41078;BME280;26823;42.662;23.352;2022-07-17T08:53:37;95390.03;;;27.34;34.36
41078;BME280;26823;42.662;23.352;2022-07-17T08:56:03;95380.84;;;27.54;33.28
41078;BME280;26823;42.662;23.352;2022-07-17T08:58:29;95367.31;;;27.52;33.78
41078;BME280;26823;42.662;23.352;2022-07-17T09:00:55;95377.22;;;27.49;33.49
41078;BME280;26823;42.662;23.352;2022-07-17T09:03:20;95378.28;;;27.68;34.72
41078;BME280;26823;42.662;23.352;2022-07-17T09:05:48;95372.16;;;27.32;33.29
41078;BME280;26823;42.662;23.352;2022-07-17T09:08:18;95370.16;;;27.56;32.84
41078;BME280;26823;42.662;23.352;2022-07-17T09:10:46;95373.44;;;27.65;32.32
41078;BME280;26823;42.662;23.352;2022-07-17T09:13:32;95365.88;;;27.35;32.13
41078;BME280;26823;42.662;23.352;2022-07-17T09:16:09;95377.72;;;27.59;32.10
41078;BME280;26823;42.662;23.352;2022-07-17T09:18:45;95373.50;;;27.69;33.07
41078;BME280;26823;42.662;23.352;2022-07-17T09:21:20;95367.28;;;27.48;32.14
41078;BME280;26823;42.662;23.352;2022-07-17T09:23:57;95364.72;;;27.63;32.37
41078;BME280;26823;42.662;23.352;2022-07-17T09:26:23;95359.09;;;27.59;32.75
41078;BME280;26823;42.662;23.352;2022-07-17T09:28:48;95374.00;;;27.74;32.97
41078;BME280;26823;42.662;23.352;2022-07-17T09:31:26;95342.38;;;27.56;31.63
41078;BME280;26823;42.662;23.352;2022-07-17T09:33:52;95372.09;;;27.82;31.45
41078;BME280;26823;42.662;23.352;2022-07-17T09:36:20;95371.22;;;27.78;32.67
41078;BME280;26823;42.662;23.352;2022-07-17T09:38:46;95353.44;;;27.82;31.52
41078;BME280;26823;42.662;23.352;2022-07-17T09:41:14;95364.06;;;27.73;31.54
41078;BME280;26823;42.662;23.352;2022-07-17T09:43:58;95377.03;;;27.96;32.25
41078;BME280;26823;42.662;23.352;2022-07-17T09:46:32;95362.38;;;27.99;30.19
41078;BME280;26823;42.662;23.352;2022-07-17T09:49:03;95369.88;;;27.95;31.05
41078;BME280;26823;42.662;23.352;2022-07-17T09:51:34;95372.66;;;27.95;32.02
41078;BME280;26823;42.662;23.352;2022-07-17T09:54:03;95373.28;;;28.11;32.12
41078;BME280;26823;42.662;23.352;2022-07-17T09:56:30;95367.38;;;28.17;31.50
41078;BME280;26823;42.662;23.352;2022-07-17T09:59:07;95374.47;;;28.10;31.49
41078;BME280;26823;42.662;23.352;2022-07-17T10:01:35;95372.75;;;28.02;30.52
41078;BME280;26823;42.662;23.352;2022-07-17T10:04:01;95365.28;;;27.76;32.45
41078;BME280;26823;42.662;23.352;2022-07-17T10:06:27;95374.94;;;27.86;31.39
41078;BME280;26823;42.662;23.352;2022-07-17T10:08:54;95341.78;;;27.70;31.71
41078;BME280;26823;42.662;23.352;2022-07-17T10:11:24;95375.53;;;28.02;32.18
41078;BME280;26823;42.662;23.352;2022-07-17T10:13:52;95361.81;;;28.17;31.74
41078;BME280;26823;42.662;23.352;2022-07-17T10:16:30;95370.50;;;28.11;31.97
41078;BME280;26823;42.662;23.352;2022-07-17T10:18:56;95362.75;;;28.28;31.81
41078;BME280;26823;42.662;23.352;2022-07-17T10:21:24;95344.88;;;28.29;33.35
41078;BME280;26823;42.662;23.352;2022-07-17T10:26:43;95346.50;;;28.30;30.60
41078;BME280;26823;42.662;23.352;2022-07-17T10:29:36;95359.06;;;28.54;31.75
41078;BME280;26823;42.662;23.352;2022-07-17T10:32:18;95359.81;;;28.51;29.65
41078;BME280;26823;42.662;23.352;2022-07-17T10:37:26;95349.91;;;28.54;31.29
41078;BME280;26823;42.662;23.352;2022-07-17T10:39:56;95354.03;;;28.67;30.32
41078;BME280;26823;42.662;23.352;2022-07-17T10:45:21;95351.06;;;28.53;31.51
41078;BME280;26823;42.662;23.352;2022-07-17T10:48:00;95346.81;;;28.25;30.40
41078;BME280;26823;42.662;23.352;2022-07-17T10:50:42;95339.66;;;28.24;30.39
41078;BME280;26823;42.662;23.352;2022-07-17T10:53:30;95346.09;;;28.31;31.52
41078;BME280;26823;42.662;23.352;2022-07-17T10:56:07;95341.50;;;28.46;30.62
41078;BME280;26823;42.662;23.352;2022-07-17T11:01:11;95335.78;;;28.32;31.26
41078;BME280;26823;42.662;23.352;2022-07-17T11:08:49;95313.41;;;28.62;30.90
41078;BME280;26823;42.662;23.352;2022-07-17T11:11:17;95342.59;;;28.76;30.35
41078;BME280;26823;42.662;23.352;2022-07-17T11:13:44;95321.25;;;28.50;30.32
41078;BME280;26823;42.662;23.352;2022-07-17T11:16:10;95324.59;;;28.66;30.17
41078;BME280;26823;42.662;23.352;2022-07-17T11:18:36;95331.38;;;28.69;31.13
41078;BME280;26823;42.662;23.352;2022-07-17T11:21:03;95324.34;;;28.82;31.04
41078;BME280;26823;42.662;23.352;2022-07-17T11:23:31;95330.72;;;28.41;30.53
41078;BME280;26823;42.662;23.352;2022-07-17T11:26:06;95325.81;;;28.31;30.88
41078;BME280;26823;42.662;23.352;2022-07-17T11:30:58;95319.50;;;28.00;30.39
41078;BME280;26823;42.662;23.352;2022-07-17T11:33:23;95311.75;;;28.13;30.21
41078;BME280;26823;42.662;23.352;2022-07-17T11:35:49;95294.41;;;28.27;29.71
41078;BME280;26823;42.662;23.352;2022-07-17T11:38:15;95314.41;;;28.40;30.65
41078;BME280;26823;42.662;23.352;2022-07-17T11:40:49;95307.13;;;28.28;31.29
41078;BME280;26823;42.662;23.352;2022-07-17T11:43:15;95291.44;;;28.46;30.61
41078;BME280;26823;42.662;23.352;2022-07-17T11:45:43;95267.28;;;28.58;30.78
41078;BME280;26823;42.662;23.352;2022-07-17T11:48:09;95287.09;;;28.53;30.67
41078;BME280;26823;42.662;23.352;2022-07-17T11:50:35;95297.97;;;28.24;30.98
41078;BME280;26823;42.662;23.352;2022-07-17T11:53:02;95292.81;;;28.26;31.15
41078;BME280;26823;42.662;23.352;2022-07-17T11:55:39;95296.31;;;28.19;31.41
41078;BME280;26823;42.662;23.352;2022-07-17T11:58:04;95285.47;;;28.07;31.41
41078;BME280;26823;42.662;23.352;2022-07-17T12:00:30;95256.31;;;27.97;31.02
41078;BME280;26823;42.662;23.352;2022-07-17T12:03:04;95281.50;;;28.08;31.60
41078;BME280;26823;42.662;23.352;2022-07-17T12:05:31;95279.88;;;27.73;32.17
41078;BME280;26823;42.662;23.352;2022-07-17T12:07:57;95275.81;;;28.00;32.00
41078;BME280;26823;42.662;23.352;2022-07-17T12:10:28;95284.19;;;28.38;31.07
41078;BME280;26823;42.662;23.352;2022-07-17T12:12:59;95281.53;;;28.49;32.19
41078;BME280;26823;42.662;23.352;2022-07-17T12:15:45;95275.75;;;28.69;31.20
41078;BME280;26823;42.662;23.352;2022-07-17T12:18:24;95282.09;;;28.69;30.96
41078;BME280;26823;42.662;23.352;2022-07-17T12:20:53;95265.69;;;28.57;31.22
41078;BME280;26823;42.662;23.352;2022-07-17T12:23:36;95270.22;;;28.72;31.36
41078;BME280;26823;42.662;23.352;2022-07-17T12:26:13;95276.06;;;28.63;31.71
41078;BME280;26823;42.662;23.352;2022-07-17T12:28:42;95278.66;;;28.42;32.28
41078;BME280;26823;42.662;23.352;2022-07-17T12:31:11;95276.25;;;28.03;31.88
41078;BME280;26823;42.662;23.352;2022-07-17T12:33:37;95289.53;;;28.17;32.27
41078;BME280;26823;42.662;23.352;2022-07-17T12:36:03;95262.28;;;27.95;32.60
41078;BME280;26823;42.662;23.352;2022-07-17T12:38:28;95268.56;;;28.23;32.03
41078;BME280;26823;42.662;23.352;2022-07-17T12:40:54;95268.91;;;28.18;31.58
41078;BME280;26823;42.662;23.352;2022-07-17T12:43:19;95276.03;;;28.15;31.25
41078;BME280;26823;42.662;23.352;2022-07-17T12:45:45;95240.72;;;27.85;32.21
41078;BME280;26823;42.662;23.352;2022-07-17T12:48:10;95275.63;;;27.82;32.44
41078;BME280;26823;42.662;23.352;2022-07-17T12:50:35;95260.28;;;27.58;33.89
41078;BME280;26823;42.662;23.352;2022-07-17T12:53:02;95274.38;;;27.76;33.49
41078;BME280;26823;42.662;23.352;2022-07-17T12:55:27;95273.03;;;27.63;33.68
41078;BME280;26823;42.662;23.352;2022-07-17T12:57:53;95264.59;;;27.56;33.58
41078;BME280;26823;42.662;23.352;2022-07-17T13:00:18;95237.97;;;27.51;33.58
41078;BME280;26823;42.662;23.352;2022-07-17T13:02:43;95251.06;;;27.85;33.76
41078;BME280;26823;42.662;23.352;2022-07-17T13:05:09;95251.09;;;27.88;33.35
41078;BME280;26823;42.662;23.352;2022-07-17T13:07:34;95257.16;;;27.97;33.76